Time;durP1;ratioP1;P1;durP2;ratioP2;P2;SDS_P1;SDS_P2;PMS_P1;PMS_P2;Temp;Humidity;BMP_temperature;BMP_pressure;BME280_temperature;BME280_humidity;BME280_pressure;Samples;Min_cycle;Max_cycle;Signal;HPM_P1;HPM_P2
2023/10/08 00:02:25;;;;;;;7.35;1.90;;;;;;;17.25;59.36;100902.34;5018325;28;20046;-48
2023/10/08 00:04:54;;;;;;;6.10;2.00;;;;;;;17.23;59.95;100909.34;5020903;28;20490;-45
2023/10/08 00:07:21;;;;;;;4.95;2.30;;;;;;;17.20;59.75;100910.28;5022777;28;20499;-49
2023/10/08 00:09:51;;;;;;;7.15;2.60;;;;;;;17.18;60.27;100905.06;5021336;28;20052;-51
2023/10/08 00:12:17;;;;;;;9.85;2.13;;;;;;;17.15;59.29;100912.97;5018070;28;20061;-51
2023/10/08 00:14:46;;;;;;;4.68;1.80;;;;;;;17.14;59.78;100910.38;5019474;28;20125;-49
2023/10/08 00:17:13;;;;;;;7.75;2.28;;;;;;;17.11;60.04;100913.91;5020229;28;20046;-49
2023/10/08 00:19:42;;;;;;;6.82;2.22;;;;;;;17.09;59.44;100923.50;5035947;28;20041;-46
2023/10/08 00:22:12;;;;;;;5.40;2.70;;;;;;;17.05;59.38;100921.81;5039570;28;20056;-46
2023/10/08 00:24:41;;;;;;;5.60;2.15;;;;;;;17.03;60.15;100919.25;5041579;28;20132;-48
2023/10/08 00:27:09;;;;;;;5.07;2.13;;;;;;;17.02;59.66;100927.13;5036015;28;20049;-47
2023/10/08 00:29:40;;;;;;;5.63;2.60;;;;;;;17.00;59.67;100934.09;5039788;28;20080;-46
2023/10/08 00:32:15;;;;;;;7.55;2.55;;;;;;;16.97;59.63;100929.78;5041026;28;20049;-50
2023/10/08 00:34:43;;;;;;;4.68;1.80;;;;;;;16.95;59.66;100927.19;5042561;28;20048;-52
2023/10/08 00:37:14;;;;;;;8.93;2.35;;;;;;;16.94;60.18;100935.94;5029881;28;20056;-49
2023/10/08 00:39:42;;;;;;;5.55;2.58;;;;;;;16.92;59.38;100935.09;5025343;28;20048;-47
2023/10/08 00:42:12;;;;;;;5.80;2.58;;;;;;;16.91;59.74;100935.97;5027727;28;20061;-47
2023/10/08 00:44:47;;;;;;;6.32;2.13;;;;;;;16.89;59.87;100934.28;5023827;28;20129;-48
2023/10/08 00:47:18;;;;;;;7.25;2.10;;;;;;;16.85;59.64;100936.06;5028826;28;20736;-47
2023/10/08 00:52:29;;;;;;;8.45;2.78;;;;;;;16.79;59.88;100936.16;5083470;27;20677;-48
2023/10/08 00:55:08;;;;;;;8.05;2.42;;;;;;;16.77;59.67;100936.19;5057056;28;20049;-46
2023/10/08 00:57:42;;;;;;;5.50;2.40;;;;;;;16.74;59.90;100937.97;5056359;28;20462;-46
2023/10/08 01:00:21;;;;;;;5.38;2.13;;;;;;;16.70;59.67;100947.63;5058767;28;20490;-46
2023/10/08 01:02:54;;;;;;;6.15;3.15;;;;;;;16.68;60.07;100947.63;5062100;28;20051;-49
2023/10/08 01:05:28;;;;;;;6.88;2.10;;;;;;;16.65;60.08;100950.28;5055822;28;20127;-49
2023/10/08 01:07:56;;;;;;;5.90;2.13;;;;;;;16.61;60.54;100951.22;5060681;28;20583;-45
2023/10/08 01:10:24;;;;;;;7.15;2.70;;;;;;;16.58;59.79;100948.63;5054179;28;20041;-50
2023/10/08 01:13:05;;;;;;;4.97;2.53;;;;;;;16.55;60.36;100940.84;5058949;28;20052;-50
2023/10/08 01:15:35;;;;;;;6.07;1.95;;;;;;;16.50;60.43;100945.25;5053957;28;20057;-48
2023/10/08 01:18:06;;;;;;;5.20;2.05;;;;;;;16.45;60.07;100943.56;5056591;28;20045;-49
2023/10/08 01:20:33;;;;;;;5.53;2.40;;;;;;;16.42;60.47;100946.22;5073433;28;20444;-47
2023/10/08 01:23:04;;;;;;;7.15;1.90;;;;;;;16.40;59.78;100945.41;5079259;28;20048;-47
2023/10/08 01:25:30;;;;;;;7.20;2.60;;;;;;;16.36;60.13;100943.72;5064719;28;20641;-46
2023/10/08 01:28:01;;;;;;;4.53;1.98;;;;;;;16.32;60.42;100937.63;5061542;28;20078;-52
2023/10/08 01:30:34;;;;;;;4.50;1.80;;;;;;;16.29;60.39;100942.06;5060609;28;20515;-48
2023/10/08 01:33:02;;;;;;;5.50;2.47;;;;;;;16.24;60.14;100946.47;5073730;28;20136;-49
2023/10/08 01:35:31;;;;;;;6.03;2.13;;;;;;;16.22;60.06;100940.38;5071555;28;20505;-47
2023/10/08 01:38:00;;;;;;;6.13;2.05;;;;;;;16.16;60.04;100944.81;5060757;28;20048;-48
2023/10/08 01:40:29;;;;;;;9.65;2.72;;;;;;;16.14;60.32;100943.09;5077781;28;20932;-45
2023/10/08 01:43:04;;;;;;;6.70;2.13;;;;;;;16.09;60.32;100945.75;5075744;28;20053;-48
2023/10/08 01:45:32;;;;;;;6.85;3.08;;;;;;;16.04;60.21;100952.78;5062529;28;20084;-48
2023/10/08 01:47:58;;;;;;;4.95;2.25;;;;;;;16.00;60.73;100953.69;5081346;28;20048;-46
2023/10/08 01:50:25;;;;;;;4.18;2.13;;;;;;;15.96;60.57;100952.88;5072973;28;20052;-48
2023/10/08 01:52:52;;;;;;;4.00;2.30;;;;;;;15.90;60.96;100961.59;5073969;28;20072;-49
2023/10/08 01:55:19;;;;;;;6.30;2.05;;;;;;;15.85;60.39;100958.19;5073377;28;20048;-47
2023/10/08 01:57:47;;;;;;;6.72;2.33;;;;;;;15.79;60.64;100942.56;5075840;28;20140;-50
2023/10/08 02:00:19;;;;;;;5.80;2.10;;;;;;;15.75;60.40;100956.53;5059709;28;20071;-47
2023/10/08 02:02:46;;;;;;;4.80;1.90;;;;;;;15.70;61.04;100945.28;5053490;28;20533;-48
2023/10/08 02:05:15;;;;;;;6.13;2.22;;;;;;;15.64;61.05;100954.88;5049381;28;20110;-47
2023/10/08 02:07:44;;;;;;;5.82;1.95;;;;;;;15.61;60.83;100949.72;5044065;28;20042;-50
2023/10/08 02:10:11;;;;;;;4.78;2.47;;;;;;;15.59;60.81;100950.56;5045483;28;20048;-47
2023/10/08 02:12:38;;;;;;;5.68;2.40;;;;;;;15.56;61.34;100946.25;5049171;28;20049;-46
2023/10/08 02:15:07;;;;;;;6.10;2.53;;;;;;;15.51;60.91;100933.22;5064067;28;20048;-52
2023/10/08 02:17:34;;;;;;;5.45;2.72;;;;;;;15.50;61.23;100941.09;5048587;28;20498;-46
2023/10/08 02:20:05;;;;;;;5.72;2.17;;;;;;;15.46;61.21;100941.97;5049256;28;20045;-49
2023/10/08 02:22:33;;;;;;;10.30;2.60;;;;;;;15.42;60.79;100949.88;5047943;28;20049;-47
2023/10/08 02:25:01;;;;;;;4.43;1.75;;;;;;;15.40;61.13;100946.38;5055942;28;20040;-49
2023/10/08 02:27:28;;;;;;;5.03;2.15;;;;;;;15.36;60.95;100947.28;5061331;28;20178;-47
2023/10/08 02:29:55;;;;;;;6.07;2.20;;;;;;;15.33;61.38;100955.16;5063783;28;20048;-48
2023/10/08 02:32:22;;;;;;;6.03;2.30;;;;;;;15.27;61.36;100943.00;5058939;28;20049;-46
2023/10/08 02:34:50;;;;;;;6.93;2.05;;;;;;;15.23;61.30;100961.34;5058779;28;20041;-48
2023/10/08 02:37:17;;;;;;;5.07;2.17;;;;;;;15.21;61.39;100955.25;5049986;28;20044;-51
2023/10/08 02:39:46;;;;;;;6.45;2.55;;;;;;;15.17;61.43;100954.41;5048638;28;20132;-48
2023/10/08 02:42:14;;;;;;;6.95;2.30;;;;;;;15.15;61.25;100961.38;5047397;28;20079;-46
2023/10/08 02:44:41;;;;;;;4.40;2.10;;;;;;;15.13;61.62;100973.59;5048681;28;20045;-49
2023/10/08 02:47:20;;;;;;;6.07;1.95;;;;;;;15.11;61.46;100970.97;5049356;28;20580;-49
2023/10/08 02:49:48;;;;;;;5.43;1.83;;;;;;;15.07;61.85;100979.72;5048750;28;20053;-47
2023/10/08 02:52:16;;;;;;;5.30;1.70;;;;;;;15.06;61.64;100983.16;5046228;28;20071;-50
2023/10/08 02:54:43;;;;;;;4.95;1.98;;;;;;;15.04;61.30;100979.72;5049057;28;20041;-50
2023/10/08 02:57:14;;;;;;;4.63;1.67;;;;;;;15.00;61.11;100968.41;5043394;28;20049;-49
2023/10/08 02:59:41;;;;;;;6.25;2.42;;;;;;;14.97;60.77;100984.13;5065571;28;20130;-47
2023/10/08 03:02:14;;;;;;;5.50;1.73;;;;;;;14.95;61.48;100979.75;5060138;28;20795;-48
2023/10/08 03:04:45;;;;;;;6.60;2.03;;;;;;;14.92;61.36;100985.03;5064865;28;20056;-49
2023/10/08 03:07:21;;;;;;;4.78;1.92;;;;;;;14.89;61.45;100986.75;5043165;28;20057;-48
2023/10/08 03:09:50;;;;;;;6.28;2.28;;;;;;;14.87;61.54;100978.09;5045582;28;20135;-46
2023/10/08 03:12:18;;;;;;;4.28;1.50;;;;;;;14.84;61.32;100977.22;5060507;28;20052;-48
2023/10/08 03:14:49;;;;;;;6.35;2.13;;;;;;;14.83;61.66;100981.56;5063207;28;20040;-48
2023/10/08 03:17:20;;;;;;;6.10;2.22;;;;;;;14.80;61.96;100986.81;5063117;28;20397;-45
2023/10/08 03:19:47;;;;;;;3.63;1.33;;;;;;;14.77;61.85;100984.22;5047285;28;20138;-47
2023/10/08 03:22:18;;;;;;;5.70;1.92;;;;;;;14.75;61.41;100984.19;5046173;28;20051;-47
2023/10/08 03:24:48;;;;;;;6.05;2.40;;;;;;;14.73;61.74;100985.94;5040759;28;20102;-48
2023/10/08 03:29:54;;;;;;;6.22;4.20;;;;;;;14.69;61.92;100981.59;5118900;27;20451;-48
2023/10/08 03:32:26;;;;;;;5.32;3.28;;;;;;;14.67;61.45;100972.06;5083857;27;20517;-46
2023/10/08 03:34:54;;;;;;;5.28;3.42;;;;;;;14.65;61.39;100966.84;5083241;28;20101;-49
2023/10/08 03:37:29;;;;;;;5.78;3.28;;;;;;;14.63;61.79;100964.25;5074293;28;20040;-47
2023/10/08 03:42:48;;;;;;;4.38;2.72;;;;;;;14.60;61.85;100953.88;5061611;28;20063;-46
2023/10/08 03:45:22;;;;;;;5.65;4.47;;;;;;;14.59;61.58;100959.09;5075755;28;20040;-48
2023/10/08 03:48:04;;;;;;;5.50;3.10;;;;;;;14.59;61.55;100957.31;5080796;28;20041;-47
2023/10/08 03:50:41;;;;;;;5.70;3.13;;;;;;;14.59;61.65;100951.25;5081891;28;20048;-48
2023/10/08 03:53:11;;;;;;;4.72;3.05;;;;;;;14.57;61.92;100948.66;5076368;28;20058;-46
2023/10/08 03:55:40;;;;;;;;;;;;;;;14.42;62.08;100938.31;5079165;28;20487;-46
2023/10/08 03:58:14;;;;;;;7.78;3.17;;;;;;;14.54;61.53;100943.44;5077338;28;19923;-48
2023/10/08 04:00:45;;;;;;;5.50;3.75;;;;;;;14.55;61.99;100934.75;5079109;28;20071;-45
2023/10/08 04:03:12;;;;;;;5.07;1.83;;;;;;;14.53;61.34;100928.69;5080580;28;20475;-46
2023/10/08 04:08:42;;;;;;;7.25;3.88;;;;;;;14.52;62.13;100934.75;5059444;28;20051;-47
2023/10/08 04:11:28;;;;;;;5.32;3.55;;;;;;;14.52;61.80;100934.75;5072648;28;20048;-49
2023/10/08 04:13:55;;;;;;;5.93;3.70;;;;;;;14.52;62.26;100929.53;5074088;28;20048;-49
2023/10/08 04:16:22;;;;;;;5.07;3.17;;;;;;;14.53;61.61;100931.31;5080373;28;20094;-48
2023/10/08 04:18:50;;;;;;;4.35;3.00;;;;;;;14.52;62.02;100927.81;5075551;28;20045;-52
2023/10/08 04:21:20;;;;;;;5.80;3.40;;;;;;;14.52;61.90;100935.63;5074843;28;20493;-50
2023/10/08 04:23:51;;;;;;;4.85;2.78;;;;;;;14.52;62.00;100926.94;5077649;28;20041;-48
2023/10/08 04:26:23;;;;;;;6.85;3.20;;;;;;;14.52;62.06;100926.94;5075825;28;20072;-49
2023/10/08 04:28:57;;;;;;;6.20;3.67;;;;;;;14.51;62.55;100927.81;5071582;28;20048;-47
2023/10/08 04:31:28;;;;;;;6.43;3.47;;;;;;;14.50;61.75;100936.53;5066022;28;20075;-51
2023/10/08 04:34:00;;;;;;;7.30;3.90;;;;;;;14.47;62.15;100942.63;5070085;28;20098;-53
2023/10/08 04:36:27;;;;;;;6.40;2.05;;;;;;;14.43;61.82;100947.84;5075198;28;20382;-48
2023/10/08 04:38:54;;;;;;;6.20;3.83;;;;;;;14.38;62.27;100947.84;5078527;28;20508;-49
2023/10/08 04:41:27;;;;;;;5.38;3.80;;;;;;;14.32;62.32;100948.75;5060840;28;20524;-46
2023/10/08 04:43:55;;;;;;;6.38;4.00;;;;;;;14.29;62.97;100954.00;5065111;28;20052;-52
2023/10/08 04:49:32;;;;;;;3.58;1.80;;;;;;;14.24;62.44;100940.09;5038771;28;20399;-49
2023/10/08 04:52:08;;;;;;;4.63;2.05;;;;;;;14.20;62.51;100933.16;5003735;28;20388;-48
2023/10/08 04:54:40;;;;;;;;;;;;;;;14.03;62.84;100936.69;5004360;28;20389;-51
2023/10/08 04:57:14;;;;;;;3.55;1.70;;;;;;;14.14;62.79;100944.47;5003076;28;19929;-48
2023/10/08 04:59:43;;;;;;;5.32;1.55;;;;;;;14.14;62.65;100944.47;4999610;28;20053;-51
2023/10/08 05:05:21;;;;;;;5.70;2.08;;;;;;;14.11;63.17;100947.97;5005181;28;20050;-45
2023/10/08 05:13:15;;;;;;;6.90;2.53;;;;;;;14.24;62.90;100940.97;5056799;27;20403;-49
2023/10/08 05:16:01;;;;;;;6.90;2.13;;;;;;;14.16;63.16;100947.97;5023754;28;20045;-50
2023/10/08 05:19:04;;;;;;;4.32;2.17;;;;;;;14.11;62.92;100954.91;5037971;28;20769;-49
2023/10/08 05:21:50;;;;;;;4.57;1.50;;;;;;;14.08;63.23;100950.56;5026057;28;20086;-52
2023/10/08 05:24:13;;;;;;;7.85;2.40;;;;;;;14.06;62.75;100957.53;5029969;28;20057;-48
2023/10/08 05:26:49;;;;;;;6.25;2.15;;;;;;;14.06;63.42;100947.13;5031705;28;20037;-50
2023/10/08 05:35:30;;;;;;;8.65;2.53;;;;;;;14.03;63.19;100951.44;5036785;28;20052;-48
2023/10/08 05:37:41;;;;;;;7.03;2.28;;;;;;;14.03;63.18;100949.72;5039644;28;20099;-48
2023/10/08 05:40:21;;;;;;;5.22;1.92;;;;;;;14.02;63.03;100945.41;5037885;28;20620;-47
2023/10/08 05:43:00;;;;;;;4.93;3.15;;;;;;;14.02;62.93;100953.22;5035725;28;20080;-46
2023/10/08 05:45:30;;;;;;;5.47;2.20;;;;;;;14.01;63.83;100956.66;5038078;28;20157;-49
2023/10/08 05:48:27;;;;;;;6.13;2.78;;;;;;;14.00;63.94;100967.97;5034650;28;20136;-49
2023/10/08 05:51:12;;;;;;;8.43;2.67;;;;;;;13.99;63.49;100974.91;5031023;28;20061;-52
2023/10/08 05:53:55;;;;;;;5.47;1.98;;;;;;;13.97;64.13;100968.84;5020637;28;21014;-48
2023/10/08 05:56:29;;;;;;;6.05;2.72;;;;;;;13.96;63.28;100971.44;5032123;28;20136;-47
2023/10/08 05:59:15;;;;;;;16.63;8.77;;;;;;;13.95;64.25;100972.31;5015848;28;20074;-50
2023/10/08 06:01:42;;;;;;;14.70;9.13;;;;;;;13.92;63.65;100974.94;5013997;28;20050;-49
2023/10/08 06:04:31;;;;;;;;;;;;;;;13.75;64.18;100974.06;5019563;28;20095;-47
2023/10/08 06:07:12;;;;;;;15.55;6.40;;;;;;;13.85;63.45;100974.91;5015348;28;19925;-49
2023/10/08 06:09:50;;;;;;;9.48;3.42;;;;;;;13.85;63.61;100980.13;5012335;28;20050;-48
2023/10/08 06:12:29;;;;;;;5.15;1.63;;;;;;;13.84;64.00;100981.00;5034820;28;20123;-51
2023/10/08 06:15:12;;;;;;;5.47;2.00;;;;;;;13.83;63.80;100981.88;5020570;28;20053;-49
2023/10/08 06:20:26;;;;;;;5.88;2.70;;;;;;;13.79;63.92;100980.16;5015382;28;20073;-51
2023/10/08 06:22:59;;;;;;;6.32;2.20;;;;;;;13.79;64.49;100974.06;5011350;28;20042;-48
2023/10/08 06:25:28;;;;;;;9.25;3.05;;;;;;;13.79;64.39;100976.69;5014546;28;20103;-47
2023/10/08 06:27:57;;;;;;;6.20;2.42;;;;;;;13.79;64.19;100980.16;5021437;28;20046;-46
2023/10/08 06:30:29;;;;;;;11.90;5.90;;;;;;;13.80;64.18;100975.78;5020179;28;20413;-49
2023/10/08 06:32:56;;;;;;;13.38;5.53;;;;;;;13.80;63.93;100974.06;5020572;28;20545;-51
2023/10/08 06:35:26;;;;;;;15.23;7.00;;;;;;;13.82;64.09;100974.06;5015806;28;20061;-49
2023/10/08 06:37:54;;;;;;;13.27;5.53;;;;;;;13.83;64.13;100976.69;5018003;28;20057;-52
2023/10/08 06:43:14;;;;;;;7.00;2.30;;;;;;;13.90;64.17;100997.47;5026531;28;20398;-51
2023/10/08 06:45:43;;;;;;;8.60;2.20;;;;;;;13.93;64.09;100998.38;5024970;28;20097;-50
2023/10/08 06:48:17;;;;;;;32.30;10.10;;;;;;;13.94;64.30;100994.88;5013442;28;20662;-49
2023/10/08 06:50:45;;;;;;;33.17;9.68;;;;;;;13.97;64.63;100994.00;5015144;28;20076;-52
2023/10/08 06:53:13;;;;;;;35.38;10.73;;;;;;;14.00;64.19;100994.00;5012794;28;20104;-47
2023/10/08 06:55:41;;;;;;;37.00;10.85;;;;;;;14.03;64.49;100978.38;5020587;28;20041;-48
2023/10/08 06:58:08;;;;;;;26.45;7.50;;;;;;;14.06;64.78;100986.19;5020942;28;20141;-53
2023/10/08 07:00:51;;;;;;;9.10;3.20;;;;;;;14.09;64.05;100986.16;5015174;28;20061;-50
2023/10/08 07:03:18;;;;;;;13.05;3.85;;;;;;;14.10;64.56;100980.09;5017432;28;20061;-50
2023/10/08 07:06:16;;;;;;;14.07;4.60;;;;;;;14.14;64.78;100986.16;5014411;28;20115;-47
2023/10/08 07:08:35;;;;;;;11.43;4.97;;;;;;;14.18;64.13;100979.22;5009007;28;20048;-48
2023/10/08 07:11:08;;;;;;;5.85;2.53;;;;;;;14.21;64.15;100977.47;5012354;28;20057;-48
2023/10/08 07:13:37;;;;;;;7.05;2.28;;;;;;;14.25;64.04;100980.91;4995009;28;20046;-49
2023/10/08 07:16:06;;;;;;;6.35;1.92;;;;;;;14.30;64.31;100981.78;5006085;28;20053;-50
2023/10/08 07:18:33;;;;;;;11.05;2.88;;;;;;;14.33;64.31;100979.16;5004194;28;20064;-52
2023/10/08 07:21:11;;;;;;;19.27;5.40;;;;;;;14.37;64.75;100973.06;5010729;28;20061;-49
2023/10/08 07:24:09;;;;;;;73.78;17.85;;;;;;;14.43;64.81;100963.47;5016730;28;20049;-49
2023/10/08 07:26:35;;;;;;;19.98;6.40;;;;;;;14.48;65.03;100959.09;5011176;28;20144;-49
2023/10/08 07:29:09;;;;;;;9.18;3.20;;;;;;;14.56;64.62;100967.75;5008869;28;20101;-48
2023/10/08 07:31:37;;;;;;;6.07;2.13;;;;;;;14.62;64.56;100962.53;5012965;28;20507;-52
2023/10/08 07:34:25;;;;;;;6.57;3.15;;;;;;;14.68;64.67;100965.97;5011837;28;20084;-48
2023/10/08 07:36:51;;;;;;;5.45;2.30;;;;;;;14.73;65.08;100962.47;5012447;28;20056;-49
2023/10/08 07:39:35;;;;;;;6.40;2.22;;;;;;;14.80;65.25;100963.34;5012823;28;20057;-46
2023/10/08 07:42:05;;;;;;;5.72;2.22;;;;;;;14.88;64.93;100964.16;5009593;28;20057;-47
2023/10/08 07:44:35;;;;;;;6.97;2.53;;;;;;;14.96;65.17;100958.03;5008875;28;20057;-47
2023/10/08 07:47:12;;;;;;;4.65;1.90;;;;;;;15.07;65.02;100956.22;5006735;28;20088;-52
2023/10/08 07:49:40;;;;;;;6.63;2.92;;;;;;;15.21;64.92;100955.25;5005339;28;20057;-49
2023/10/08 07:52:06;;;;;;;8.50;2.72;;;;;;;15.32;64.85;100956.03;5006152;28;20123;-49
2023/10/08 07:54:34;;;;;;;5.20;2.47;;;;;;;15.45;65.24;100959.41;4995374;28;20041;-46
2023/10/08 07:57:11;;;;;;;7.20;3.60;;;;;;;15.62;64.75;100967.09;4996665;28;20748;-45
2023/10/08 07:59:47;;;;;;;7.38;2.25;;;;;;;15.81;64.59;100972.16;4992652;28;20049;-47
2023/10/08 08:02:17;;;;;;;5.70;3.10;;;;;;;16.02;64.53;100976.34;4995559;28;20049;-47
2023/10/08 08:04:50;;;;;;;8.77;2.67;;;;;;;16.26;64.37;100973.44;4995034;28;20038;-46
2023/10/08 08:07:17;;;;;;;8.13;3.13;;;;;;;16.51;64.08;100971.41;4994953;28;20066;-47
2023/10/08 08:09:50;;;;;;;6.78;2.75;;;;;;;16.70;64.73;100973.78;4994036;28;20702;-46
2023/10/08 08:12:21;;;;;;;26.65;6.20;;;;;;;16.83;63.76;100974.47;4991899;28;20042;-50
2023/10/08 08:14:48;;;;;;;11.25;3.40;;;;;;;16.90;63.71;100970.00;4986905;28;20446;-45
2023/10/08 08:17:15;;;;;;;12.45;2.70;;;;;;;16.94;63.35;100980.44;4995777;28;20592;-48
2023/10/08 08:19:47;;;;;;;6.40;2.58;;;;;;;16.96;63.69;100978.63;4992068;28;20086;-50
2023/10/08 08:22:21;;;;;;;7.03;2.60;;;;;;;17.00;63.38;100986.44;4989895;28;20053;-47
2023/10/08 08:24:54;;;;;;;7.13;2.33;;;;;;;17.07;63.92;100982.88;4992215;28;20038;-49
2023/10/08 08:27:25;;;;;;;11.85;3.80;;;;;;;17.21;63.81;100986.16;4994826;28;21699;-47
2023/10/08 08:29:55;;;;;;;23.13;6.55;;;;;;;17.42;64.16;100989.31;4996883;28;20060;-47
2023/10/08 08:32:23;;;;;;;18.23;5.70;;;;;;;17.63;63.59;100995.06;4996771;28;20054;-49
2023/10/08 08:34:50;;;;;;;8.95;2.70;;;;;;;17.82;63.37;100994.75;4992398;28;20041;-50
2023/10/08 08:37:17;;;;;;;8.27;2.10;;;;;;;18.08;63.69;100998.66;4991182;28;20053;-45
2023/10/08 08:39:45;;;;;;;7.38;2.60;;;;;;;18.38;62.91;101001.63;4996334;28;20050;-45
2023/10/08 08:42:14;;;;;;;6.68;2.35;;;;;;;18.72;62.88;100995.69;4980273;28;20050;-49
2023/10/08 08:44:45;;;;;;;8.50;2.40;;;;;;;19.23;62.15;101006.81;4994045;28;20125;-47
2023/10/08 08:47:24;;;;;;;12.95;3.83;;;;;;;19.77;61.60;101012.50;4993997;28;20515;-50
2023/10/08 08:49:55;;;;;;;8.52;2.58;;;;;;;20.29;60.38;101019.91;5000588;28;20466;-47
2023/10/08 08:52:22;;;;;;;10.02;2.58;;;;;;;20.60;58.75;101017.31;4993329;28;20050;-47
2023/10/08 08:54:49;;;;;;;6.80;2.20;;;;;;;20.66;58.09;101011.84;4995264;28;20077;-47
2023/10/08 08:57:16;;;;;;;11.73;4.95;;;;;;;20.61;57.97;101014.66;5000409;28;20611;-51
2023/10/08 08:59:52;;;;;;;6.18;2.45;;;;;;;20.52;57.77;101014.91;4991631;28;20404;-48
2023/10/08 09:02:19;;;;;;;7.03;2.40;;;;;;;20.45;57.88;101008.97;4992105;28;20046;-48
2023/10/08 09:04:49;;;;;;;8.52;2.50;;;;;;;20.44;57.33;101015.13;4990167;28;20043;-49
2023/10/08 09:07:21;;;;;;;7.72;2.55;;;;;;;20.50;57.08;101012.31;4993536;28;20817;-49
2023/10/08 09:09:49;;;;;;;7.15;2.50;;;;;;;20.70;57.22;101020.53;4990202;28;20050;-49
2023/10/08 09:12:17;;;;;;;7.45;2.20;;;;;;;20.92;57.03;101019.00;4993236;28;20121;-49
2023/10/08 09:14:45;;;;;;;6.43;2.60;;;;;;;21.22;56.78;101022.50;4996491;28;20549;-49
2023/10/08 09:17:15;;;;;;;4.95;1.95;;;;;;;21.61;56.33;101026.53;5001122;28;20056;-50
2023/10/08 09:19:42;;;;;;;6.63;2.17;;;;;;;21.99;55.23;101032.28;5001270;28;20057;-46
2023/10/08 09:22:11;;;;;;;6.30;1.90;;;;;;;22.13;54.96;101030.94;4995679;28;20214;-50
2023/10/08 09:24:40;;;;;;;4.45;1.75;;;;;;;22.13;54.31;101031.78;4998154;28;20647;-51
2023/10/08 09:27:08;;;;;;;5.28;2.05;;;;;;;22.24;54.58;101041.09;4993376;28;20436;-48
2023/10/08 09:29:39;;;;;;;5.30;1.98;;;;;;;22.48;54.54;101036.69;4998060;28;20071;-47
2023/10/08 09:32:11;;;;;;;5.50;2.42;;;;;;;22.72;54.31;101034.06;4998055;28;20052;-48
2023/10/08 09:34:38;;;;;;;5.57;2.78;;;;;;;23.04;54.19;101031.97;4999201;28;20418;-45
2023/10/08 09:37:04;;;;;;;4.97;2.15;;;;;;;23.45;54.12;101030.38;4991877;28;20058;-48
2023/10/08 09:39:35;;;;;;;5.05;2.42;;;;;;;23.99;53.54;101028.09;4993590;28;20068;-50
2023/10/08 09:42:03;;;;;;;6.53;2.55;;;;;;;24.58;52.42;101021.97;4992438;28;20124;-49
2023/10/08 09:44:33;;;;;;;7.75;2.90;;;;;;;25.02;51.48;101025.28;4995265;28;20045;-49
2023/10/08 09:47:05;;;;;;;6.05;2.92;;;;;;;25.42;50.91;101017.16;4989810;28;20053;-46
2023/10/08 09:52:10;;;;;;;7.15;3.67;;;;;;;26.20;49.55;101017.66;5069919;27;20907;-47
2023/10/08 09:54:44;;;;;;;8.82;4.63;;;;;;;26.30;48.58;101016.25;5051290;28;20088;-49
2023/10/08 09:57:11;;;;;;;7.10;3.38;;;;;;;26.23;48.79;101012.16;5067160;28;20056;-51
2023/10/08 09:59:40;;;;;;;6.90;3.03;;;;;;;26.07;48.68;101010.34;5049440;28;20045;-52
2023/10/08 10:02:10;;;;;;;5.72;2.95;;;;;;;25.88;48.66;100998.06;5047787;28;20488;-48
2023/10/08 10:04:43;;;;;;;;;;;;;;;25.75;49.95;100999.63;5048354;28;20279;-48
2023/10/08 10:07:12;;;;;;;5.10;2.55;;;;;;;25.57;49.42;101004.94;5056275;28;19970;-47
2023/10/08 10:09:44;;;;;;;7.22;2.42;;;;;;;25.37;48.81;101004.13;5068510;28;20159;-49
2023/10/08 10:12:18;;;;;;;5.00;1.92;;;;;;;25.20;49.13;101012.06;5068701;28;20041;-51
2023/10/08 10:14:47;;;;;;;6.03;2.03;;;;;;;25.18;49.32;101008.63;5082835;28;20063;-51
2023/10/08 10:17:20;;;;;;;6.05;2.25;;;;;;;25.34;49.64;101009.59;5100930;27;20091;-50
2023/10/08 10:20:13;;;;;;;7.25;2.22;;;;;;;25.70;49.32;101014.94;5051237;28;20163;-48
2023/10/08 10:22:43;;;;;;;6.03;2.88;;;;;;;26.09;48.85;101019.09;5049899;28;20052;-49
2023/10/08 10:25:18;;;;;;;6.78;3.10;;;;;;;26.54;48.32;101011.41;5048630;28;20041;-49
2023/10/08 10:30:41;;;;;;;8.65;4.32;;;;;;;27.49;46.76;101015.00;5018405;28;20400;-48
2023/10/08 10:33:08;;;;;;;7.40;3.08;;;;;;;27.67;46.09;101008.63;4960536;28;20404;-49
2023/10/08 10:35:37;;;;;;;6.65;2.17;;;;;;;27.73;46.48;101019.84;4960346;28;20735;-48
2023/10/08 10:38:06;;;;;;;5.45;2.47;;;;;;;27.91;46.00;101017.88;4992321;28;20415;-49
2023/10/08 10:40:40;;;;;;;5.72;4.07;;;;;;;28.03;44.22;101021.59;4959962;28;20063;-52
2023/10/08 10:43:15;;;;;;;5.47;3.58;;;;;;;28.17;44.74;101023.41;4961137;28;20117;-49
2023/10/08 10:45:44;;;;;;;6.82;3.88;;;;;;;28.27;44.14;101021.03;4975556;28;20051;-49
2023/10/08 10:48:14;;;;;;;6.57;3.67;;;;;;;28.43;44.07;101023.63;4959855;28;20043;-50
2023/10/08 10:51:08;;;;;;;6.28;4.90;;;;;;;28.62;43.89;101017.97;4978430;28;20449;-48
2023/10/08 10:53:29;;;;;;;4.97;3.42;;;;;;;28.82;43.60;101021.16;4959540;28;20586;-52
2023/10/08 10:56:03;;;;;;;7.10;3.78;;;;;;;28.91;43.03;101012.56;4959539;28;20047;-49
2023/10/08 10:58:38;;;;;;;6.82;2.38;;;;;;;28.91;42.31;101017.91;4953865;28;20436;-52
2023/10/08 11:01:23;;;;;;;;;;;;;;;28.80;42.84;101009.75;4958879;28;20047;-49
2023/10/08 11:03:51;;;;;;;5.78;3.85;;;;;;;28.69;43.08;101019.28;4986778;28;19950;-47
2023/10/08 11:06:23;;;;;;;7.38;3.80;;;;;;;28.60;42.26;101019.84;4959770;28;20042;-47
2023/10/08 11:08:52;;;;;;;5.32;3.80;;;;;;;28.50;41.43;101026.75;4961609;28;20137;-46
2023/10/08 11:11:27;;;;;;;5.25;3.42;;;;;;;28.41;41.91;101031.72;4962005;28;20055;-50
2023/10/08 11:14:00;;;;;;;5.88;3.08;;;;;;;28.30;42.54;101028.84;4961114;28;20459;-53
2023/10/08 11:16:31;;;;;;;6.18;4.75;;;;;;;28.13;42.54;101030.72;4961612;28;20047;-49
2023/10/08 11:19:01;;;;;;;8.00;3.95;;;;;;;28.07;43.35;101023.13;4955872;28;20086;-50
2023/10/08 11:21:33;;;;;;;7.93;3.65;;;;;;;28.06;42.27;101014.25;4962522;28;20063;-53
2023/10/08 11:24:08;;;;;;;23.45;2.97;;;;;;;28.03;43.09;101001.13;4962719;28;20561;-47
2023/10/08 11:26:38;;;;;;;6.20;3.53;;;;;;;28.01;43.04;100999.53;4959872;28;20697;-48
2023/10/08 11:29:14;;;;;;;6.40;3.80;;;;;;;27.94;42.84;101007.91;4955585;28;20050;-46
2023/10/08 11:31:42;;;;;;;5.65;1.95;;;;;;;27.86;42.60;101002.16;4960372;28;20577;-51
2023/10/08 11:34:13;;;;;;;4.50;3.13;;;;;;;27.76;42.35;100999.22;4959789;28;20047;-48
2023/10/08 11:36:56;;;;;;;4.35;3.38;;;;;;;27.73;42.82;101004.75;4961308;28;20142;-51
2023/10/08 11:39:23;;;;;;;5.13;3.58;;;;;;;27.68;42.84;101007.69;4956353;28;20047;-52
2023/10/08 11:44:35;;;;;;;7.43;3.10;;;;;;;27.53;40.76;101001.44;5067749;27;20392;-48
2023/10/08 11:47:11;;;;;;;7.07;2.20;;;;;;;27.33;42.02;100989.31;5018063;28;20054;-48
2023/10/08 11:49:46;;;;;;;8.02;2.47;;;;;;;27.17;43.08;100982.25;5017542;28;20053;-52
2023/10/08 11:52:15;;;;;;;4.55;1.92;;;;;;;26.99;42.70;100983.31;5033067;28;20053;-48
2023/10/08 11:54:44;;;;;;;3.70;2.00;;;;;;;26.78;43.42;100986.22;5028139;28;20056;-49
2023/10/08 11:57:11;;;;;;;4.05;1.40;;;;;;;26.71;44.11;100985.69;5024260;28;20045;-49
2023/10/08 11:59:39;;;;;;;5.40;1.73;;;;;;;26.59;44.43;100970.44;5028319;28;20155;-47
2023/10/08 12:02:06;;;;;;;4.50;2.15;;;;;;;26.49;43.51;100981.59;5028317;28;20045;-50
2023/10/08 12:04:33;;;;;;;6.05;2.38;;;;;;;26.42;44.01;100982.88;5028711;28;20073;-49
2023/10/08 12:07:07;;;;;;;5.85;2.35;;;;;;;26.38;44.04;100983.97;5022319;28;20045;-51
2023/10/08 12:09:37;;;;;;;5.03;1.83;;;;;;;26.43;44.37;100972.16;5024449;28;20498;-51
2023/10/08 12:12:09;;;;;;;3.25;1.83;;;;;;;26.59;44.56;100979.28;5022822;28;20046;-49
2023/10/08 12:14:37;;;;;;;4.85;1.70;;;;;;;26.74;44.00;100974.91;5023709;28;20065;-46
2023/10/08 12:17:11;;;;;;;6.07;2.10;;;;;;;26.99;44.35;100976.19;5025748;28;20535;-48
2023/10/08 12:19:40;;;;;;;5.63;2.40;;;;;;;27.23;43.92;100975.72;5025518;28;20056;-48
2023/10/08 12:22:08;;;;;;;6.18;1.80;;;;;;;27.40;43.63;100972.06;5027843;28;20049;-49
2023/10/08 12:24:36;;;;;;;6.60;1.75;;;;;;;27.43;43.40;100963.88;5024647;28;20046;-49
2023/10/08 12:27:03;;;;;;;5.65;2.45;;;;;;;27.40;42.87;100956.09;5022451;28;20586;-53